Time;durP1;ratioP1;P1;durP2;ratioP2;P2;SDS_P1;SDS_P2;PMS_P1;PMS_P2;Temp;Humidity;BMP_temperature;BMP_pressure;BME280_temperature;BME280_humidity;BME280_pressure;Samples;Min_cycle;Max_cycle;Signal;HPM_P1;HPM_P2
2022/03/25 00:00:36;;;;;;;;;52.75;41.50;;;;;12.68;35.06;102399.06;5032942;27;1279757;-74
2022/03/25 00:03:04;;;;;;;;;54.50;43.00;;;;;12.65;34.60;102397.19;5068835;27;45444;-73
2022/03/25 00:05:30;;;;;;;;;53.50;39.75;;;;;12.50;34.47;102383.31;5077420;28;46110;-73
2022/03/25 00:07:56;;;;;;;;;61.00;43.25;;;;;12.57;34.05;102392.41;5069007;27;46436;-73
2022/03/25 00:10:21;;;;;;;;;55.75;43.75;;;;;12.56;34.89;102393.25;5079072;27;45306;-73
2022/03/25 00:12:47;;;;;;;;;55.75;44.25;;;;;12.46;34.67;102379.63;5072838;27;45218;-73
2022/03/25 00:15:12;;;;;;;;;58.25;42.25;;;;;12.40;35.05;102383.75;5065857;28;45214;-73
2022/03/25 00:17:38;;;;;;;;;54.75;44.25;;;;;12.48;35.35;102393.84;5067382;28;46844;-73
2022/03/25 00:20:04;;;;;;;;;53.25;39.00;;;;;12.46;34.79;102403.50;5076864;28;45624;-74
2022/03/25 00:22:30;;;;;;;;;44.50;31.25;;;;;12.43;35.49;102405.09;5071098;28;45642;-73
2022/03/25 00:24:55;;;;;;;;;57.25;44.75;;;;;12.21;35.05;102368.78;5067440;27;45540;-73
2022/03/25 00:27:21;;;;;;;;;54.75;44.00;;;;;12.18;35.17;102366.91;5076684;28;45957;-74
2022/03/25 00:29:47;;;;;;;;;58.00;44.75;;;;;12.36;35.93;102403.03;5068264;28;45343;-74
2022/03/25 00:32:12;;;;;;;;;54.75;43.00;;;;;12.29;35.28;102384.22;5070067;28;45351;-73
2022/03/25 00:34:37;;;;;;;;;56.75;43.50;;;;;11.87;35.42;102309.03;5069253;27;45322;-73
2022/03/25 00:37:03;;;;;;;;;50.50;42.00;;;;;12.06;35.16;102355.78;5077095;28;48111;-73
2022/03/25 00:39:28;;;;;;;;;54.50;42.50;;;;;11.82;35.28;102313.22;5069953;27;45409;-73
2022/03/25 00:41:54;;;;;;;;;53.25;41.25;;;;;12.21;35.80;102384.69;5077616;28;45555;-73
2022/03/25 00:44:19;;;;;;;;;54.00;41.50;;;;;12.28;35.60;102406.25;5071102;27;45466;-73
2022/03/25 00:46:45;;;;;;;;;60.00;45.00;;;;;12.25;35.52;102394.63;5077264;27;47057;-73
2022/03/25 00:49:11;;;;;;;;;59.00;45.50;;;;;12.18;35.23;102388.13;5074128;28;45261;-73
2022/03/25 00:51:37;;;;;;;;;56.25;43.00;;;;;12.20;34.53;102394.41;5080839;27;45528;-74
2022/03/25 00:54:03;;;;;;;;;58.50;46.75;;;;;12.18;36.28;102403.13;5072332;28;44886;-73
2022/03/25 00:56:29;;;;;;;;;58.00;44.50;;;;;12.01;34.81;102366.19;5080772;27;45262;-74
2022/03/25 00:58:54;;;;;;;;;52.50;41.25;;;;;12.13;35.95;102399.38;5072630;28;45237;-73
2022/03/25 01:01:19;;;;;;;;;57.50;44.00;;;;;12.05;36.21;102388.44;5077933;28;45675;-73
2022/03/25 01:03:45;;;;;;;;;55.75;42.75;;;;;12.08;36.30;102396.53;5070558;27;45621;-73
2022/03/25 01:06:10;;;;;;;;;60.75;46.50;;;;;11.70;35.79;102329.47;5077633;28;47125;-72
2022/03/25 01:08:36;;;;;;;;;53.25;43.25;;;;;12.03;36.26;102390.13;5072124;28;45458;-73
2022/03/25 01:11:04;;;;;;;;;54.25;39.75;;;;;12.00;35.85;102395.28;5080836;28;45330;-73
2022/03/25 01:13:33;;;;;;;;;62.25;47.50;;;;;11.62;36.05;102344.09;5076432;27;45344;-73
2022/03/25 01:16:04;;;;;;;;;53.50;40.50;;;;;11.85;35.77;102376.94;5080718;27;45319;-73
2022/03/25 01:18:30;;;;;;;;;57.25;43.50;;;;;11.92;35.95;102387.00;5076513;28;45300;-73
2022/03/25 01:20:57;;;;;;;;;56.00;43.00;;;;;11.59;36.97;102336.94;5079473;28;45247;-73
2022/03/25 01:23:23;;;;;;;;;55.25;44.00;;;;;11.80;37.11;102376.72;5074114;28;45486;-73
2022/03/25 01:25:48;;;;;;;;;61.00;43.00;;;;;11.81;36.09;102375.88;5072901;28;47165;-73
2022/03/25 01:28:13;;;;;;;;;61.25;46.50;;;;;11.76;36.60;102366.84;5076657;27;45402;-73
2022/03/25 01:30:39;;;;;;;;;52.50;42.25;;;;;11.79;36.20;102376.66;5075128;28;45299;-73
2022/03/25 01:33:04;;;;;;;;;62.75;46.50;;;;;11.69;37.64;102359.44;5077611;28;45381;-73
2022/03/25 01:35:30;;;;;;;;;54.75;45.00;;;;;11.75;37.33;102375.59;5074551;28;46959;-73
2022/03/25 01:37:56;;;;;;;;;59.75;42.25;;;;;11.70;37.61;102374.50;5078277;28;45493;-72
2022/03/25 01:40:21;;;;;;;;;59.50;44.00;;;;;11.67;36.61;102374.34;5074678;28;45293;-72
2022/03/25 01:42:47;;;;;;;;;58.00;44.50;;;;;11.47;37.05;102341.69;5079591;28;45313;-72
2022/03/25 01:45:12;;;;;;;;;57.00;45.50;;;;;11.50;37.23;102346.22;5074113;28;46139;-73
2022/03/25 01:47:38;;;;;;;;;53.25;43.75;;;;;11.10;37.99;102279.13;5079641;28;45449;-73
2022/03/25 01:50:12;;;;;;;;;56.25;44.75;;;;;11.33;37.24;102316.31;5061921;27;45290;-73
2022/03/25 01:52:37;;;;;;;;;54.00;42.75;;;;;11.60;36.54;102367.00;5062028;28;46963;-73
2022/03/25 01:55:17;;;;;;;;;56.50;43.50;;;;;11.51;36.70;102361.25;5080347;28;45298;-73
2022/03/25 01:57:44;;;;;;;;;52.75;43.00;;;;;11.20;37.06;102307.84;5070903;27;45291;-74
2022/03/25 02:00:12;;;;;;;;;56.25;45.75;;;;;11.28;37.08;102321.41;5078908;28;45312;-73
2022/03/25 02:02:39;;;;;;;;;59.50;46.00;;;;;11.02;36.94;102277.88;5071636;27;45481;-73
2022/03/25 02:05:05;;;;;;;;;54.75;43.00;;;;;11.25;38.09;102321.25;5079168;28;46514;-73
2022/03/25 02:07:30;;;;;;;;;53.00;44.00;;;;;11.37;36.60;102345.66;5072785;27;45544;-73
2022/03/25 02:09:56;;;;;;;;;55.75;42.00;;;;;11.16;37.58;102310.25;5078398;28;45419;-73
2022/03/25 02:12:22;;;;;;;;;53.25;38.75;;;;;11.15;38.41;102317.28;5074860;27;45465;-73
2022/03/25 02:14:47;;;;;;;;;55.75;43.00;;;;;11.14;38.69;102317.22;5067058;27;45960;-73
2022/03/25 02:17:13;;;;;;;;;54.75;41.75;;;;;11.23;38.51;102345.84;5074951;28;45466;-73
2022/03/25 02:19:38;;;;;;;;;56.50;43.25;;;;;11.29;38.70;102372.63;5077174;28;45228;-73
2022/03/25 02:22:04;;;;;;;;;62.00;45.75;;;;;11.05;39.28;102348.53;5076914;27;45169;-73
2022/03/25 02:24:30;;;;;;;;;58.00;45.25;;;;;11.12;39.29;102366.53;5069353;27;45401;-73
2022/03/25 02:26:57;;;;;;;;;52.50;43.50;;;;;10.97;38.99;102353.47;5079660;28;45446;-73
2022/03/25 02:29:23;;;;;;;;;61.00;45.00;;;;;10.91;38.98;102342.59;5070975;27;45402;-73
2022/03/25 02:31:48;;;;;;;;;56.50;45.25;;;;;10.49;40.49;102276.22;5078597;27;45339;-73
2022/03/25 02:34:14;;;;;;;;;53.00;42.75;;;;;10.69;40.23;102332.72;5069775;28;45441;-73
2022/03/25 02:36:41;;;;;;;;;56.75;43.25;;;;;10.86;40.83;102366.16;5079808;28;45274;-73
2022/03/25 02:39:08;;;;;;;;;57.50;44.50;;;;;10.67;41.06;102353.81;5072896;28;45306;-73
2022/03/25 02:41:34;;;;;;;;;58.00;43.50;;;;;10.64;39.21;102353.69;5079144;28;45478;-73
2022/03/25 02:44:00;;;;;;;;;59.00;45.75;;;;;10.62;41.33;102363.25;5073218;28;45522;-73
2022/03/25 02:46:26;;;;;;;;;56.50;45.25;;;;;10.62;40.06;102365.91;5078880;28;45446;-73
2022/03/25 02:48:52;;;;;;;;;50.75;40.75;;;;;10.37;40.14;102328.50;5070612;28;45396;-73
2022/03/25 02:51:17;;;;;;;;;62.50;49.00;;;;;10.22;40.85;102305.75;5067699;28;45860;-74
2022/03/25 02:53:43;;;;;;;;;62.25;46.50;;;;;10.56;41.27;102376.19;5069168;28;47381;-73
2022/03/25 02:56:08;;;;;;;;;56.50;42.00;;;;;10.55;41.12;102373.44;5074575;28;45510;-73
2022/03/25 02:58:34;;;;;;;;;59.50;45.25;;;;;10.34;42.05;102338.94;5077653;28;45316;-73
2022/03/25 03:00:59;;;;;;;;;58.50;45.50;;;;;10.42;41.34;102370.22;5078880;28;45311;-73
2022/03/25 03:03:25;;;;;;;;;55.25;44.00;;;;;10.34;42.01;102358.34;5070001;28;46168;-72
2022/03/25 03:05:50;;;;;;;;;62.50;48.50;;;;;10.37;42.07;102384.03;5078804;27;45403;-72
2022/03/25 03:08:16;;;;;;;;;54.25;42.75;;;;;9.81;42.53;102290.44;5068848;28;45307;-72
2022/03/25 03:10:42;;;;;;;;;59.00;45.00;;;;;10.32;42.38;102380.22;5078911;27;46189;-72
2022/03/25 03:13:09;;;;;;;;;57.00;46.00;;;;;10.28;42.68;102384.47;5071367;28;46161;-72
2022/03/25 03:15:36;;;;;;;;;59.75;45.00;;;;;10.22;42.25;102382.38;5069558;28;45273;-72
2022/03/25 03:18:02;;;;;;;;;57.00;45.75;;;;;10.19;43.15;102383.94;5084020;27;45434;-72
2022/03/25 03:20:27;;;;;;;;;55.50;41.00;;;;;10.00;42.54;102356.59;5084687;27;46119;-72
2022/03/25 03:22:55;;;;;;;;;55.75;44.00;;;;;9.88;43.07;102334.81;5075351;28;46189;-73
2022/03/25 03:25:20;;;;;;;;;61.25;45.75;;;;;9.96;44.28;102356.34;5067834;28;45465;-72
2022/03/25 03:27:46;;;;;;;;;55.25;45.25;;;;;10.04;43.48;102378.78;5077556;28;45285;-73
2022/03/25 03:30:12;;;;;;;;;62.25;45.00;;;;;9.99;43.57;102375.00;5069093;27;45252;-72
2022/03/25 03:32:37;;;;;;;;;54.25;42.50;;;;;9.85;43.92;102354.03;5078122;28;45889;-73
2022/03/25 03:35:04;;;;;;;;;57.75;45.25;;;;;9.81;43.93;102351.19;5070163;27;45273;-73
2022/03/25 03:37:29;;;;;;;;;60.50;45.25;;;;;9.72;43.94;102340.09;5078211;28;45335;-73
2022/03/25 03:39:55;;;;;;;;;59.50;45.25;;;;;9.73;44.74;102350.78;5071610;27;45636;-72
2022/03/25 03:42:20;;;;;;;;;56.00;44.25;;;;;9.72;43.09;102353.31;5082626;27;46894;-73
2022/03/25 03:44:46;;;;;;;;;58.75;46.75;;;;;9.55;45.00;102326.03;5072706;28;45598;-73
2022/03/25 03:47:12;;;;;;;;;62.00;45.50;;;;;9.70;44.37;102366.44;5078077;28;45381;-73
2022/03/25 03:49:38;;;;;;;;;54.75;43.50;;;;;9.67;44.19;102361.00;5077949;28;45449;-73
2022/03/25 03:52:04;;;;;;;;;58.25;43.25;;;;;9.53;44.58;102341.78;5075096;28;45470;-74
2022/03/25 03:54:31;;;;;;;;;57.50;42.75;;;;;9.45;45.47;102336.94;5071223;28;46222;-74
2022/03/25 03:56:56;;;;;;;;;60.75;44.75;;;;;9.36;44.76;102330.34;5076202;28;47959;-73
2022/03/25 03:59:22;;;;;;;;;56.00;40.50;;;;;9.41;45.36;102347.34;5070119;28;46240;-74
2022/03/25 04:01:48;;;;;;;;;52.25;42.25;;;;;9.50;45.52;102367.13;5077899;28;46259;-73
2022/03/25 04:04:13;;;;;;;;;55.00;43.50;;;;;9.15;45.69;102313.34;5070380;28;45259;-73
2022/03/25 04:06:39;;;;;;;;;56.25;45.00;;;;;9.28;46.43;102344.84;5078122;27;45284;-72
2022/03/25 04:09:04;;;;;;;;;60.00;46.25;;;;;9.33;46.07;102358.31;5069552;27;45488;-72
2022/03/25 04:11:30;;;;;;;;;53.00;40.25;;;;;9.31;46.99;102359.94;5075371;27;47803;-73
2022/03/25 04:13:55;;;;;;;;;55.50;43.00;;;;;9.27;47.83;102369.44;5067036;28;45267;-72
2022/03/25 04:16:22;;;;;;;;;60.50;45.00;;;;;9.19;46.80;102354.91;5071935;28;45263;-72
2022/03/25 04:18:47;;;;;;;;;55.25;44.25;;;;;9.13;46.75;102349.25;5069790;28;46979;-72
2022/03/25 04:21:13;;;;;;;;;62.00;47.25;;;;;9.00;47.25;102325.69;5074969;28;47563;-73
2022/03/25 04:23:38;;;;;;;;;62.00;46.25;;;;;9.20;47.30;102375.19;5072603;27;45483;-72
2022/03/25 04:26:04;;;;;;;;;59.50;44.25;;;;;8.87;47.02;102321.47;5076336;28;45311;-72
2022/03/25 04:28:29;;;;;;;;;58.25;44.50;;;;;9.04;47.13;102361.97;5081815;28;45362;-74
2022/03/25 04:30:55;;;;;;;;;54.50;44.00;;;;;9.00;47.86;102357.34;5079548;28;47166;-72
2022/03/25 04:33:20;;;;;;;;;58.50;45.75;;;;;8.92;48.13;102349.91;5077261;28;45527;-72
2022/03/25 04:35:46;;;;;;;;;64.00;47.00;;;;;9.04;47.43;102377.78;5077312;28;45189;-73
2022/03/25 04:38:11;;;;;;;;;55.25;46.25;;;;;8.85;47.37;102354.72;5071173;28;46436;-73
2022/03/25 04:40:37;;;;;;;;;60.50;47.50;;;;;8.82;48.29;102355.50;5076604;28;47250;-72
2022/03/25 04:43:03;;;;;;;;;58.00;47.25;;;;;8.98;48.37;102390.63;5079023;28;45252;-72
2022/03/25 04:45:30;;;;;;;;;67.00;52.00;;;;;8.95;48.31;102391.38;5078303;28;45494;-72
2022/03/25 04:47:55;;;;;;;;;72.25;54.75;;;;;8.91;47.73;102398.19;5080335;28;45726;-72
2022/03/25 04:50:22;;;;;;;;;64.75;47.00;;;;;8.89;48.24;102389.28;5064909;28;45603;-73
2022/03/25 04:52:48;;;;;;;;;54.25;41.00;;;;;8.81;48.51;102379.13;5082320;27;45285;-72
2022/03/25 04:55:14;;;;;;;;;50.50;41.00;;;;;8.86;48.09;102397.03;5081439;27;45355;-72
2022/03/25 04:57:41;;;;;;;;;58.25;45.00;;;;;8.62;48.16;102353.44;5075562;28;45920;-72
2022/03/25 05:00:08;;;;;;;;;57.75;43.50;;;;;8.76;46.61;102394.69;5081163;27;45499;-72
2022/03/25 05:02:34;;;;;;;;;61.00;48.50;;;;;8.46;48.53;102343.78;5073893;27;45736;-72
2022/03/25 05:04:59;;;;;;;;;58.25;43.00;;;;;8.75;48.64;102403.41;5077554;28;45303;-72
2022/03/25 05:07:25;;;;;;;;;53.75;44.50;;;;;8.65;47.66;102393.16;5080663;27;45221;-72
2022/03/25 05:09:51;;;;;;;;;57.25;45.00;;;;;8.70;48.36;102404.88;5080021;28;48206;-72
2022/03/25 05:12:16;;;;;;;;;57.50;44.75;;;;;8.55;48.49;102378.56;5073927;28;45558;-72
2022/03/25 05:14:42;;;;;;;;;58.25;44.75;;;;;8.68;48.83;102414.41;5065085;28;45568;-73
2022/03/25 05:17:07;;;;;;;;;52.75;44.00;;;;;8.55;48.98;102399.63;5078096;28;45300;-73
2022/03/25 05:19:33;;;;;;;;;57.25;47.00;;;;;8.62;49.14;102407.06;5076687;28;46181;-73
2022/03/25 05:21:58;;;;;;;;;61.00;48.00;;;;;8.51;49.47;102395.91;5079181;27;45438;-73
2022/03/25 05:24:27;;;;;;;;;60.00;47.50;;;;;8.57;49.29;102403.28;5070831;27;45518;-73
2022/03/25 05:26:54;;;;;;;;;62.75;46.00;;;;;8.55;49.58;102404.00;5080369;28;45260;-73
2022/03/25 05:29:20;;;;;;;;;60.50;48.50;;;;;8.52;50.11;102407.38;5071783;27;45279;-73
2022/03/25 05:31:46;;;;;;;;;56.75;44.25;;;;;8.47;49.82;102409.72;5080210;28;45281;-73
2022/03/25 05:34:12;;;;;;;;;63.75;51.00;;;;;8.33;50.03;102391.25;5072699;28;45331;-72
2022/03/25 05:36:37;;;;;;;;;63.00;50.25;;;;;8.22;49.78;102382.72;5076950;28;46741;-73
2022/03/25 05:39:04;;;;;;;;;65.00;48.25;;;;;8.19;50.29;102380.81;5073734;27;45295;-73
2022/03/25 05:41:30;;;;;;;;;60.75;46.25;;;;;8.32;50.26;102413.13;5080052;28;45461;-73
2022/03/25 05:43:56;;;;;;;;;76.25;57.50;;;;;8.02;50.44;102363.09;5074783;28;45290;-72
2022/03/25 05:46:21;;;;;;;;;62.50;50.00;;;;;8.27;50.27;102418.16;5083022;28;45378;-72
2022/03/25 05:48:47;;;;;;;;;68.25;51.50;;;;;8.27;50.15;102416.41;5071866;28;47091;-72
2022/03/25 05:51:14;;;;;;;;;65.50;52.00;;;;;7.78;49.26;102318.66;5069517;28;45927;-72
2022/03/25 05:53:40;;;;;;;;;65.50;47.75;;;;;8.01;50.52;102372.72;5074059;28;45221;-73
2022/03/25 05:56:06;;;;;;;;;66.50;48.75;;;;;7.92;50.69;102365.97;5080321;28;45438;-73
2022/03/25 05:58:33;;;;;;;;;58.50;46.75;;;;;7.92;50.03;102376.50;5071437;27;46089;-73
2022/03/25 06:00:59;;;;;;;;;62.00;47.25;;;;;8.17;51.15;102423.66;5078588;28;47073;-73
2022/03/25 06:03:24;;;;;;;;;58.25;47.50;;;;;8.18;50.13;102422.88;5069050;28;45285;-73
2022/03/25 06:05:50;;;;;;;;;64.25;47.75;;;;;8.19;51.15;102429.94;5079588;27;45330;-73
2022/03/25 06:08:15;;;;;;;;;68.50;50.75;;;;;8.20;51.06;102426.47;5072183;27;45424;-73
2022/03/25 06:10:41;;;;;;;;;61.25;47.25;;;;;8.20;51.41;102429.13;5070467;28;45335;-71
2022/03/25 06:13:07;;;;;;;;;67.50;48.25;;;;;8.21;51.34;102433.59;5077358;28;45284;-72
2022/03/25 06:15:32;;;;;;;;;62.50;48.50;;;;;8.08;50.66;102409.13;5069023;28;45275;-72
2022/03/25 06:17:58;;;;;;;;;65.00;51.00;;;;;8.16;50.87;102421.88;5075751;28;46880;-72
2022/03/25 06:20:23;;;;;;;;;67.75;51.75;;;;;8.09;50.98;102410.03;5069855;28;45422;-72
2022/03/25 06:22:49;;;;;;;;;66.25;51.00;;;;;8.25;51.66;102435.56;5078955;28;45800;-72
2022/03/25 06:25:16;;;;;;;;;67.00;49.50;;;;;8.15;51.30;102420.97;5070171;27;45316;-72
2022/03/25 06:27:53;;;;;;;;;63.25;42.75;;;;;8.29;49.53;102445.50;5079114;28;46440;-74
2022/03/25 06:30:21;;;;;;;;;62.00;47.25;;;;;8.10;51.59;102409.25;5060497;28;45321;-74
2022/03/25 06:32:47;;;;;;;;;61.75;46.50;;;;;8.35;51.42;102447.59;5076430;28;45246;-76
2022/03/25 06:35:13;;;;;;;;;65.00;50.75;;;;;8.38;51.73;102453.94;5073555;28;45392;-75
2022/03/25 06:37:40;;;;;;;;;72.50;51.25;;;;;8.39;52.42;102445.25;5075116;28;46325;-75
2022/03/25 06:40:07;;;;;;;;;71.00;52.50;;;;;8.37;51.13;102446.84;5074079;27;45429;-75
2022/03/25 06:42:34;;;;;;;;;61.50;47.50;;;;;8.32;52.16;102436.84;5073208;28;45377;-75
2022/03/25 06:44:59;;;;;;;;;67.00;52.50;;;;;8.35;51.12;102437.06;5072798;28;45222;-75
2022/03/25 06:47:25;;;;;;;;;70.00;51.75;;;;;8.35;52.01;102429.16;5072864;28;45350;-73
2022/03/25 06:49:51;;;;;;;;;64.50;48.75;;;;;8.43;52.09;102436.72;5075517;28;45433;-75
2022/03/25 06:52:16;;;;;;;;;73.25;57.00;;;;;8.51;52.46;102443.34;5075180;28;45303;-75
2022/03/25 06:54:42;;;;;;;;;71.25;55.00;;;;;8.69;52.42;102467.25;5074800;28;44851;-74
2022/03/25 06:57:09;;;;;;;;;56.75;45.25;;;;;8.66;51.35;102443.34;5077145;28;46916;-74
2022/03/25 06:59:35;;;;;;;;;67.00;50.25;;;;;8.85;51.33;102455.88;5078138;28;45200;-74
2022/03/25 07:02:01;;;;;;;;;61.75;45.00;;;;;9.06;51.25;102464.09;5077361;28;46044;-74
2022/03/25 07:04:26;;;;;;;;;58.75;50.75;;;;;8.91;50.74;102413.13;5071387;28;47821;-74
2022/03/25 07:06:56;;;;;;;;;62.25;47.75;;;;;8.90;50.10;102396.38;5067471;27;45939;-76
2022/03/25 07:09:22;;;;;;;;;66.25;51.00;;;;;9.51;50.58;102466.59;5079598;28;45465;-76
2022/03/25 07:11:47;;;;;;;;;65.00;51.00;;;;;9.64;50.55;102463.81;5077588;28;45406;-76
2022/03/25 07:14:13;;;;;;;;;62.00;50.50;;;;;9.79;49.32;102463.75;5068094;28;45328;-76
2022/03/25 07:16:42;;;;;;;;;55.75;47.75;;;;;9.94;48.97;102453.06;5073718;28;46991;-74
2022/03/25 07:19:09;;;;;;;;;69.00;49.25;;;;;10.19;49.64;102469.41;5068616;28;45378;-75
2022/03/25 07:21:35;;;;;;;;;60.50;48.50;;;;;10.38;48.13;102470.41;5077727;28;45378;-76
2022/03/25 07:24:00;;;;;;;;;66.00;50.00;;;;;10.37;48.18;102436.88;5068699;27;45237;-75
2022/03/25 07:26:26;;;;;;;;;62.75;50.75;;;;;10.43;46.88;102427.53;5074651;28;47283;-76
2022/03/25 07:28:51;;;;;;;;;63.00;49.25;;;;;10.86;47.48;102476.38;5106662;27;46018;-76
2022/03/25 07:31:18;;;;;;;;;70.25;50.50;;;;;10.87;45.98;102457.06;5078600;27;45651;-78
2022/03/25 07:33:43;;;;;;;;;67.50;51.50;;;;;11.23;46.51;102478.19;5066543;28;46287;-76
2022/03/25 07:36:09;;;;;;;;;66.00;50.50;;;;;11.39;45.92;102479.00;5077512;28;45386;-75
2022/03/25 07:38:34;;;;;;;;;67.75;51.25;;;;;11.43;45.65;102458.91;5072750;28;45335;-75
2022/03/25 07:40:59;;;;;;;;;68.50;50.50;;;;;11.67;46.16;102471.47;5077255;28;45283;-73
2022/03/25 07:43:25;;;;;;;;;65.50;47.25;;;;;11.64;45.59;102444.00;5069540;27;45300;-74
2022/03/25 07:45:50;;;;;;;;;63.25;49.75;;;;;11.98;45.26;102463.22;5078388;27;46053;-74
2022/03/25 07:48:16;;;;;;;;;59.00;47.75;;;;;12.11;43.73;102456.72;5074801;28;45290;-74
2022/03/25 07:50:42;;;;;;;;;99.67;78.33;;;;;12.15;43.62;102448.06;5073635;28;45348;-76
2022/03/25 07:53:09;;;;;;;;;150.00;127.50;;;;;12.22;42.09;102453.72;5068429;28;45262;-75
2022/03/25 07:55:34;;;;;;;;;83.75;64.50;;;;;12.59;42.13;102495.09;5078820;27;45309;-75
2022/03/25 07:57:59;;;;;;;;;69.00;50.00;;;;;12.66;41.26;102477.69;5069138;27;45440;-73
2022/03/25 08:00:25;;;;;;;;;62.25;46.25;;;;;12.63;41.50;102454.59;5084114;27;45264;-78
2022/03/25 08:02:53;;;;;;;;;69.50;54.00;;;;;12.81;40.03;102483.66;5076421;27;45376;-82
2022/03/25 08:05:19;;;;;;;;;59.75;46.75;;;;;13.03;41.14;102500.50;5082007;28;45319;-81
2022/03/25 08:07:54;;;;;;;;;63.25;49.25;;;;;12.73;41.02;102422.28;5075893;27;45320;-79
2022/03/25 08:10:24;;;;;;;;;60.25;47.00;;;;;13.06;39.03;102459.03;5069745;28;45300;-81
2022/03/25 08:12:50;;;;;;;;;67.25;49.50;;;;;13.46;40.13;102503.16;5076840;27;45344;-78
2022/03/25 08:15:18;;;;;;;;;66.50;49.25;;;;;13.61;38.98;102495.81;5070417;27;45920;-76
2022/03/25 08:17:48;;;;;;;;;65.25;48.00;;;;;13.60;39.61;102462.09;5071489;28;45403;-78
2022/03/25 08:20:18;;;;;;;;;61.25;47.25;;;;;13.71;38.71;102448.31;5071494;28;45413;-77
2022/03/25 08:22:44;;;;;;;;;65.00;49.00;;;;;14.09;38.35;102484.31;5073393;28;45827;-79
2022/03/25 08:27:58;;;;;;;;;62.25;48.75;;;;;14.46;37.95;102491.88;5081157;28;45451;-77
2022/03/25 08:30:25;;;;;;;;;68.00;53.00;;;;;14.52;37.94;102461.94;5081975;27;45342;-76
2022/03/25 08:32:51;;;;;;;;;65.50;50.75;;;;;14.70;37.98;102461.66;5079660;28;45493;-77
2022/03/25 08:35:16;;;;;;;;;66.75;51.00;;;;;15.10;36.77;102497.63;5074931;27;46562;-78
2022/03/25 08:37:42;;;;;;;;;61.00;48.75;;;;;15.18;36.29;102477.47;5081140;28;45397;-79
2022/03/25 08:40:09;;;;;;;;;65.50;50.25;;;;;15.55;36.43;102498.19;5076643;28;45232;-78
2022/03/25 08:42:34;;;;;;;;;64.00;49.75;;;;;15.72;35.65;102496.09;5075298;28;45353;-77
2022/03/25 08:44:59;;;;;;;;;67.25;53.00;;;;;15.71;35.86;102469.38;5078896;28;45153;-78
2022/03/25 08:47:25;;;;;;;;;57.00;45.00;;;;;15.99;33.89;102487.06;5076562;27;45332;-78
2022/03/25 08:49:50;;;;;;;;;69.25;51.25;;;;;16.22;34.01;102498.44;5077626;28;46073;-77
2022/03/25 08:52:17;;;;;;;;;63.25;49.00;;;;;16.49;35.21;102496.50;5077450;28;45461;-78
2022/03/25 08:54:42;;;;;;;;;63.75;49.25;;;;;16.60;35.39;102495.91;5072254;28;48409;-78
2022/03/25 08:57:08;;;;;;;;;62.25;49.00;;;;;16.48;33.91;102470.69;5077909;28;45338;-78
2022/03/25 08:59:33;;;;;;;;;64.25;47.75;;;;;16.68;33.78;102495.25;5075073;28;45531;-76
2022/03/25 09:01:59;;;;;;;;;63.75;48.50;;;;;16.72;32.95;102478.44;5079384;27;45350;-77
2022/03/25 09:04:24;;;;;;;;;67.00;50.50;;;;;16.64;32.51;102433.72;5073139;28;44921;-78
2022/03/25 09:06:50;;;;;;;;;61.25;48.00;;;;;17.02;33.44;102473.88;5075933;27;45317;-76
2022/03/25 09:09:15;;;;;;;;;70.00;52.50;;;;;17.08;33.61;102455.31;5079358;28;45358;-77
2022/03/25 09:11:40;;;;;;;;;62.00;48.00;;;;;17.23;32.99;102464.59;5078346;27;45284;-75
2022/03/25 09:14:06;;;;;;;;;67.50;52.50;;;;;17.42;32.82;102463.25;5071952;27;45267;-75
2022/03/25 09:16:31;;;;;;;;;57.00;43.25;;;;;17.78;32.57;102472.97;5078116;28;44780;-77
2022/03/25 09:18:57;;;;;;;;;65.25;48.00;;;;;17.95;32.50;102465.31;5072815;27;45154;-77
2022/03/25 09:21:23;;;;;;;;;62.25;49.00;;;;;18.27;30.27;102471.31;5071544;28;45899;-75
2022/03/25 09:23:48;;;;;;;;;69.25;55.00;;;;;18.67;29.86;102489.91;5080353;27;46638;-75
2022/03/25 09:26:14;;;;;;;;;64.00;50.00;;;;;18.76;30.59;102461.56;5079493;27;45418;-75
2022/03/25 09:28:39;;;;;;;;;60.75;47.50;;;;;19.01;29.33;102462.81;5080324;27;45558;-75
2022/03/25 09:31:05;;;;;;;;;68.75;52.50;;;;;19.39;29.65;102489.34;5078854;27;45437;-74
2022/03/25 09:33:30;;;;;;;;;63.25;50.50;;;;;19.47;28.64;102481.44;5080061;27;45499;-76
2022/03/25 09:35:57;;;;;;;;;64.50;50.25;;;;;19.67;28.24;102490.69;5074328;28;45257;-76
2022/03/25 09:38:22;;;;;;;;;61.25;49.00;;;;;19.70;29.66;102454.03;5071444;28;45445;-77
2022/03/25 09:40:48;;;;;;;;;64.50;49.50;;;;;20.05;28.62;102481.31;5078662;28;45979;-77
2022/03/25 09:43:13;;;;;;;;;64.50;49.50;;;;;20.23;28.29;102486.00;5078661;28;46661;-75
2022/03/25 09:45:39;;;;;;;;;68.75;53.25;;;;;20.28;28.36;102490.56;5079953;28;45450;-74
2022/03/25 09:48:05;;;;;;;;;71.50;54.25;;;;;20.39;27.74;102473.63;5070377;27;45473;-75
2022/03/25 09:50:33;;;;;;;;;60.50;49.25;;;;;20.48;27.38;102480.00;5079818;27;45577;-75
2022/03/25 09:52:58;;;;;;;;;73.25;56.75;;;;;20.64;28.39;102485.56;5074331;28;46976;-76
2022/03/25 09:55:24;;;;;;;;;65.00;51.00;;;;;20.54;26.48;102485.47;5081004;28;45624;-75
2022/03/25 09:57:50;;;;;;;;;69.50;52.00;;;;;20.69;27.15;102487.41;5071422;27;45281;-77
2022/03/25 10:00:18;;;;;;;;;66.25;51.00;;;;;20.81;28.88;102472.28;5077698;28;46362;-76
2022/03/25 10:02:45;;;;;;;;;67.75;51.25;;;;;20.99;28.20;102473.34;5078627;28;46358;-75
2022/03/25 10:05:21;;;;;;;;;67.25;52.50;;;;;21.20;28.01;102469.00;5074478;28;45816;-76
2022/03/25 10:07:51;;;;;;;;;67.50;51.75;;;;;21.42;27.52;102483.53;5074922;27;45706;-76
2022/03/25 10:10:25;;;;;;;;;74.25;59.00;;;;;21.21;27.10;102427.78;5078190;28;46199;-76
2022/03/25 10:13:05;;;;;;;;;65.75;51.25;;;;;21.54;26.23;102463.91;5077159;27;45273;-76
2022/03/25 10:15:32;;;;;;;;;59.00;47.25;;;;;21.37;24.48;102448.56;5070310;28;45377;-76
2022/03/25 10:18:01;;;;;;;;;67.75;51.00;;;;;21.47;25.79;102472.81;5077722;27;45287;-77
2022/03/25 10:20:31;;;;;;;;;62.50;48.00;;;;;21.55;26.63;102468.38;5074966;28;45312;-76
2022/03/25 10:23:04;;;;;;;;;65.25;50.00;;;;;21.60;26.28;102474.69;5068175;28;47657;-77
2022/03/25 10:25:37;;;;;;;;;65.50;51.25;;;;;21.73;25.17;102465.75;5080053;27;45335;-76
2022/03/25 10:28:04;;;;;;;;;65.25;50.50;;;;;21.69;26.37;102437.06;5078298;27;45497;-76
2022/03/25 10:30:33;;;;;;;;;74.00;61.75;;;;;;;;5073464;28;45330;-78
2022/03/25 10:33:13;;;;;;;;;70.25;52.25;;;;;22.22;25.72;102466.00;5078670;28;46254;-77
2022/03/25 10:36:07;;;;;;;;;60.75;45.75;;;;;22.38;25.81;102466.00;5067904;28;45442;-76
2022/03/25 10:39:01;;;;;;;;;59.25;46.25;;;;;22.12;25.38;102418.34;5074881;28;45312;-76
2022/03/25 10:41:40;;;;;;;;;66.50;52.00;;;;;22.64;25.49;102469.66;5070528;28;45303;-77
2022/03/25 10:44:08;;;;;;;;;65.75;49.75;;;;;22.54;25.49;102406.75;5069700;28;45639;-77
2022/03/25 10:46:41;;;;;;;;;69.75;55.00;;;;;23.06;25.33;102457.09;5078168;28;45313;-76
2022/03/25 10:49:11;;;;;;;;;65.00;49.00;;;;;23.26;24.48;102456.19;5070490;27;45380;-77
2022/03/25 10:51:39;;;;;;;;;67.25;50.75;;;;;23.23;25.00;102431.00;5075533;28;46224;-76
2022/03/25 10:54:11;;;;;;;;;76.75;63.75;;;;;23.36;23.49;102453.47;5066015;27;46026;-75
2022/03/25 10:56:45;;;;;;;;;67.25;53.50;;;;;23.43;24.57;102436.34;5067153;28;45354;-76
2022/03/25 10:59:26;;;;;;;;;63.75;50.75;;;;;23.61;23.74;102456.06;5072716;28;45225;-76
2022/03/25 11:01:55;;;;;;;;;61.75;48.75;;;;;23.70;24.31;102433.56;5074100;28;45508;-77
2022/03/25 11:04:20;;;;;;;;;65.75;49.50;;;;;24.06;24.54;102457.72;5070475;28;45511;-76
2022/03/25 11:06:47;;;;;;;;;62.50;48.25;;;;;23.87;22.33;102419.09;5075064;27;45697;-76
2022/03/25 11:09:13;;;;;;;;;62.00;47.50;;;;;23.87;21.18;102393.91;5067971;28;45370;-76
2022/03/25 11:11:42;;;;;;;;;64.50;50.50;;;;;24.40;22.06;102460.22;5074018;28;45482;-75